createdAt,value
2023-05-19T00:00:28.967Z,75.08
2023-05-19T00:03:22.078Z,75.09
2023-05-19T00:06:12.702Z,75.09
2023-05-19T00:09:07.168Z,75.03
2023-05-19T00:11:58.327Z,75.11
2023-05-19T00:14:52.077Z,75.27
2023-05-19T00:17:43.510Z,75.36
2023-05-19T00:20:34.532Z,75.08
2023-05-19T00:23:25.639Z,75.14
2023-05-19T00:26:16.363Z,75.51
2023-05-19T00:29:27.137Z,75.64
2023-05-19T00:32:19.964Z,75.60
2023-05-19T00:35:11.623Z,75.87
2023-05-19T00:38:02.293Z,76.09
2023-05-19T00:40:53.356Z,75.95
2023-05-19T00:43:47.256Z,75.83
2023-05-19T00:46:38.271Z,75.99
2023-05-19T00:49:29.193Z,76.14
2023-05-19T00:52:22.575Z,76.11
2023-05-19T00:55:14.233Z,76.00
2023-05-19T00:58:08.696Z,76.31
2023-05-19T01:01:12.523Z,76.45
2023-05-19T01:04:04.833Z,76.48
2023-05-19T01:07:03.870Z,76.41
2023-05-19T01:09:54.499Z,76.60
2023-05-19T01:12:58.532Z,76.81
2023-05-19T01:15:58.650Z,76.81
2023-05-19T01:18:58.202Z,76.57
2023-05-19T01:22:09.512Z,76.67
2023-05-19T01:25:29.962Z,76.27
2023-05-19T01:28:53.350Z,75.85
2023-05-19T01:31:47.387Z,75.64
2023-05-19T01:34:44.369Z,75.76
2023-05-19T01:37:35.774Z,75.54
2023-05-19T01:40:29.843Z,75.48
2023-05-19T01:43:21.809Z,75.25
2023-05-19T01:46:17.069Z,74.65
2023-05-19T01:49:07.877Z,73.39
2023-05-19T01:52:11.457Z,72.81
2023-05-19T01:55:12.871Z,72.25
2023-05-19T01:58:27.343Z,71.61
2023-05-19T02:01:33.688Z,71.46
2023-05-19T02:04:40.296Z,71.42
2023-05-19T02:07:36.931Z,71.24
2023-05-19T02:10:51.860Z,71.10
2023-05-19T02:13:57.873Z,71.10
2023-05-19T02:17:10.122Z,71.23
2023-05-19T02:20:22.393Z,71.35
2023-05-19T02:23:16.312Z,71.37
2023-05-19T02:26:27.349Z,71.53
2023-05-19T02:29:18.166Z,71.49
2023-05-19T02:32:28.975Z,71.43
2023-05-19T02:35:40.249Z,71.19
2023-05-19T02:38:31.200Z,70.97
2023-05-19T02:41:24.208Z,71.08
2023-05-19T02:44:26.092Z,71.53
2023-05-19T02:47:18.940Z,71.40
2023-05-19T02:50:30.321Z,71.44
2023-05-19T02:53:36.097Z,71.45
2023-05-19T02:56:28.383Z,71.82
2023-05-19T02:59:22.910Z,71.97
2023-05-19T03:02:24.289Z,72.29
2023-05-19T03:05:35.138Z,72.36
2023-05-19T03:08:46.291Z,72.73
2023-05-19T03:11:50.770Z,72.86
2023-05-19T03:15:02.171Z,72.74
2023-05-19T03:17:53.518Z,72.51
2023-05-19T03:20:58.392Z,72.70
2023-05-19T03:24:09.546Z,72.68
2023-05-19T03:27:20.331Z,72.93
2023-05-19T03:30:14.598Z,73.11
2023-05-19T03:33:30.160Z,72.99
2023-05-19T03:36:41.485Z,73.10
2023-05-19T03:39:35.912Z,72.95
2023-05-19T03:42:30.081Z,72.78
2023-05-19T03:45:33.667Z,72.91
2023-05-19T03:48:44.541Z,72.75
2023-05-19T03:52:07.582Z,72.63
2023-05-19T03:55:21.477Z,72.58
2023-05-19T03:58:32.300Z,72.62
2023-05-19T04:01:43.302Z,72.73
2023-05-19T04:04:39.574Z,72.84
2023-05-19T04:07:34.300Z,72.81
2023-05-19T04:10:44.919Z,72.85
2023-05-19T04:13:55.831Z,73.00
2023-05-19T04:17:06.849Z,73.19
2023-05-19T04:20:08.420Z,73.52
2023-05-19T04:23:02.248Z,73.58
2023-05-19T04:26:06.964Z,73.72
2023-05-19T04:29:08.845Z,73.73
2023-05-19T04:32:19.620Z,74.07
2023-05-19T04:35:24.005Z,74.16
2023-05-19T04:38:34.837Z,74.26
2023-05-19T04:41:46.127Z,74.33
2023-05-19T04:44:49.429Z,74.56
2023-05-19T04:47:50.522Z,74.86
2023-05-19T04:51:02.803Z,74.78
2023-05-19T04:53:58.788Z,74.96
2023-05-19T04:57:10.742Z,75.04
2023-05-19T05:00:09.231Z,75.10
2023-05-19T05:03:10.511Z,75.03
2023-05-19T05:06:04.716Z,75.03
2023-05-19T05:09:15.621Z,75.00
2023-05-19T05:12:19.330Z,74.80
2023-05-19T05:15:30.694Z,74.80
2023-05-19T05:18:48.779Z,74.78
2023-05-19T05:21:43.860Z,74.78
2023-05-19T05:24:55.260Z,74.58
2023-05-19T05:27:59.302Z,74.59
2023-05-19T05:31:00.092Z,74.67
2023-05-19T05:34:10.981Z,74.97
2023-05-19T05:37:24.339Z,74.75
2023-05-19T05:40:26.228Z,74.85
2023-05-19T05:43:39.738Z,74.93
2023-05-19T05:46:50.921Z,74.78
2023-05-19T05:50:07.984Z,74.49
2023-05-19T05:53:11.070Z,74.01
2023-05-19T05:56:13.292Z,74.13
2023-05-19T05:59:11.642Z,74.28
2023-05-19T06:02:08.735Z,74.13
2023-05-19T06:05:02.705Z,74.14
2023-05-19T06:07:57.076Z,73.78
2023-05-19T06:11:06.865Z,73.70
2023-05-19T06:14:04.433Z,73.83
2023-05-19T06:17:30.731Z,73.51
2023-05-19T06:20:25.592Z,73.08
2023-05-19T06:23:19.773Z,72.97
2023-05-19T06:26:13.269Z,72.73
2023-05-19T06:29:08.508Z,72.44
2023-05-19T06:32:19.206Z,72.40
2023-05-19T06:35:16.343Z,72.49
2023-05-19T06:38:10.594Z,72.15
2023-05-19T06:41:07.072Z,71.78
2023-05-19T06:43:58.092Z,71.86
2023-05-19T06:46:54.500Z,71.87
2023-05-19T06:49:45.582Z,71.99
2023-05-19T06:52:37.556Z,71.81
2023-05-19T06:55:30.977Z,71.79
2023-05-19T06:58:21.735Z,71.90
2023-05-19T07:01:12.725Z,71.95
2023-05-19T07:04:10.843Z,71.81
2023-05-19T07:07:02.066Z,71.83
2023-05-19T07:09:55.808Z,71.33
2023-05-19T07:13:06.619Z,70.88
2023-05-19T07:15:57.563Z,70.86
2023-05-19T07:19:08.518Z,70.81
2023-05-19T07:22:01.952Z,70.52
2023-05-19T07:25:04.926Z,69.87
2023-05-19T07:28:05.042Z,69.58
2023-05-19T07:30:55.715Z,69.36
2023-05-19T07:33:46.379Z,69.34
2023-05-19T07:36:57.193Z,69.02
2023-05-19T07:39:52.906Z,69.02
2023-05-19T07:42:56.603Z,69.17
2023-05-19T07:46:07.710Z,69.17
2023-05-19T07:49:01.703Z,69.07
2023-05-19T07:51:55.118Z,68.72
2023-05-19T07:55:06.592Z,68.55
2023-05-19T07:58:00.123Z,68.42
2023-05-19T08:01:02.128Z,68.66
2023-05-19T08:03:52.901Z,68.20
2023-05-19T08:06:56.234Z,67.86
2023-05-19T08:09:46.961Z,67.61
2023-05-19T08:12:57.804Z,67.05
2023-05-19T08:15:48.621Z,66.13
2023-05-19T08:18:42.594Z,65.65
2023-05-19T08:21:34.697Z,65.61
2023-05-19T08:24:45.970Z,64.84
2023-05-19T08:27:56.741Z,64.89
2023-05-19T08:30:49.438Z,64.55
2023-05-19T08:34:00.303Z,64.47
2023-05-19T08:37:12.152Z,64.34
2023-05-19T08:40:05.013Z,64.17
2023-05-19T08:43:07.517Z,64.32
2023-05-19T08:46:01.354Z,64.40
2023-05-19T08:48:55.580Z,64.46
2023-05-19T08:51:51.922Z,64.09
2023-05-19T08:54:45.185Z,64.17
2023-05-19T08:57:36.006Z,63.91
2023-05-19T09:00:31.632Z,63.82
2023-05-19T09:03:23.855Z,63.69
2023-05-19T09:06:22.438Z,64.13
2023-05-19T09:09:32.477Z,64.29
2023-05-19T09:12:23.128Z,64.01
2023-05-19T09:15:14.007Z,63.74
2023-05-19T09:18:11.575Z,63.63
2023-05-19T09:21:04.947Z,63.12
2023-05-19T09:23:59.220Z,63.10
2023-05-19T09:26:52.180Z,63.23
2023-05-19T09:29:42.963Z,63.14
2023-05-19T09:32:33.624Z,62.65
2023-05-19T09:35:24.366Z,62.67
2023-05-19T09:38:18.553Z,62.20
2023-05-19T09:41:16.188Z,62.19
2023-05-19T09:44:22.996Z,61.96
2023-05-19T09:47:13.637Z,62.10
2023-05-19T09:50:04.775Z,61.81
2023-05-19T09:52:55.591Z,61.62
2023-05-19T09:55:46.974Z,61.32
2023-05-19T09:58:39.275Z,60.79
2023-05-19T10:01:30.534Z,60.52
2023-05-19T10:04:22.487Z,60.07
2023-05-19T10:07:14.562Z,59.11
2023-05-19T10:10:07.334Z,59.44
2023-05-19T10:12:58.055Z,59.40
2023-05-19T10:18:45.990Z,59.04
2023-05-19T10:21:36.626Z,58.15
2023-05-19T10:24:27.748Z,57.93
2023-05-19T10:27:19.241Z,57.82
2023-05-19T10:30:15.671Z,57.52
2023-05-19T10:33:09.762Z,56.63
2023-05-19T10:36:11.604Z,56.21
2023-05-19T10:39:06.448Z,55.33
2023-05-19T10:42:05.538Z,54.90
2023-05-19T10:45:11.565Z,54.76
2023-05-19T10:48:02.262Z,54.66
2023-05-19T10:50:55.526Z,54.55
2023-05-19T10:53:47.246Z,54.64
2023-05-19T10:56:42.644Z,55.00
2023-05-19T10:59:33.856Z,54.58
2023-05-19T11:02:47.731Z,54.53
2023-05-19T11:05:38.612Z,54.48
2023-05-19T11:08:34.988Z,54.48
2023-05-19T11:11:26.527Z,54.23
2023-05-19T11:14:18.816Z,53.93
2023-05-19T11:17:14.332Z,53.80
2023-05-19T11:20:06.873Z,53.66
2023-05-19T11:23:10.520Z,53.33
2023-05-19T11:26:03.483Z,53.43
2023-05-19T11:28:54.350Z,52.94
2023-05-19T11:31:45.069Z,52.68
2023-05-19T11:34:38.861Z,52.75
2023-05-19T11:37:33.452Z,52.68
2023-05-19T11:40:24.592Z,52.89
2023-05-19T11:43:15.126Z,53.32
2023-05-19T11:46:05.822Z,53.14
2023-05-19T11:48:56.708Z,53.35
2023-05-19T11:51:47.387Z,53.13
2023-05-19T11:54:39.437Z,52.95
2023-05-19T11:57:30.059Z,53.17
2023-05-19T12:00:23.639Z,53.18
2023-05-19T12:03:14.800Z,53.32
2023-05-19T12:06:08.411Z,53.13
2023-05-19T12:09:00.197Z,52.88
2023-05-19T12:11:50.931Z,52.37
2023-05-19T12:14:41.611Z,52.06
2023-05-19T12:17:33.766Z,52.24
2023-05-19T12:20:24.745Z,52.17
2023-05-19T12:23:15.334Z,52.17
2023-05-19T12:26:06.350Z,51.40
2023-05-19T12:28:59.659Z,50.64
2023-05-19T12:31:50.874Z,49.46
2023-05-19T12:34:42.151Z,48.14
2023-05-19T12:37:33.484Z,47.57
2023-05-19T12:40:23.881Z,46.91
2023-05-19T12:43:22.239Z,45.45
2023-05-19T12:46:13.023Z,45.80
2023-05-19T12:49:03.560Z,46.00
2023-05-19T12:51:54.926Z,45.96
2023-05-19T12:54:45.509Z,45.21
2023-05-19T12:57:37.016Z,44.48
2023-05-19T13:00:29.264Z,44.40
2023-05-19T13:03:20.558Z,44.01
2023-05-19T13:06:11.920Z,43.65
2023-05-19T13:09:02.804Z,43.13
2023-05-19T13:11:54.234Z,42.37
2023-05-19T13:14:44.878Z,42.20
2023-05-19T13:17:36.969Z,41.81
2023-05-19T13:20:28.649Z,41.78
2023-05-19T13:23:19.490Z,41.62
2023-05-19T13:26:11.701Z,41.79
2023-05-19T13:29:02.357Z,41.36
2023-05-19T13:31:53.069Z,40.70
2023-05-19T13:34:43.672Z,39.69
2023-05-19T13:37:34.266Z,37.60
2023-05-19T13:40:26.196Z,36.92
2023-05-19T13:43:17.393Z,36.25
2023-05-19T13:46:08.415Z,36.16
2023-05-19T13:48:59.079Z,36.20
2023-05-19T13:51:50.088Z,35.73
2023-05-19T13:54:40.862Z,34.97
2023-05-19T13:57:31.629Z,35.73
2023-05-19T14:00:22.615Z,36.48
2023-05-19T14:03:13.613Z,36.80
2023-05-19T14:06:04.440Z,36.88
2023-05-19T14:08:55.220Z,37.22
2023-05-19T14:11:45.940Z,37.74
2023-05-19T14:14:36.871Z,37.97
2023-05-19T14:17:28.538Z,38.61
2023-05-19T14:20:19.222Z,38.74
2023-05-19T14:23:09.795Z,38.48
2023-05-19T14:26:00.389Z,38.51
2023-05-19T14:28:51.469Z,38.39
2023-05-19T14:31:42.067Z,38.25
2023-05-19T14:34:32.790Z,37.72
2023-05-19T14:37:24.338Z,37.56
2023-05-19T14:40:15.371Z,37.01
2023-05-19T14:43:06.063Z,36.52
2023-05-19T14:45:56.598Z,36.41
2023-05-19T14:48:47.633Z,36.95
2023-05-19T14:51:38.154Z,37.43
2023-05-19T14:54:28.858Z,37.94
2023-05-19T14:57:19.596Z,38.09
2023-05-19T15:00:11.725Z,38.28
2023-05-19T15:03:02.450Z,38.53
2023-05-19T15:05:52.991Z,38.50
2023-05-19T15:08:43.620Z,38.14
2023-05-19T15:11:34.275Z,38.74
2023-05-19T15:14:26.203Z,38.79
2023-05-19T15:17:18.765Z,38.64
2023-05-19T15:20:10.503Z,38.67
2023-05-19T15:23:01.009Z,38.77
2023-05-19T15:25:51.566Z,38.73
2023-05-19T15:28:42.309Z,39.32
2023-05-19T15:31:33.684Z,39.26
2023-05-19T15:34:25.842Z,39.19
2023-05-19T15:37:16.707Z,39.73
2023-05-19T15:40:10.496Z,39.79
2023-05-19T15:43:01.094Z,39.78
2023-05-19T15:45:55.133Z,39.98
2023-05-19T15:48:45.716Z,40.21
2023-05-19T15:51:36.587Z,40.43
2023-05-19T15:54:27.105Z,40.57
2023-05-19T15:57:17.669Z,40.31
2023-05-19T16:00:11.678Z,40.20
2023-05-19T16:03:02.447Z,40.14
2023-05-19T16:05:54.471Z,40.43
2023-05-19T16:08:45.031Z,40.68
2023-05-19T16:11:35.751Z,41.22
2023-05-19T16:14:29.333Z,41.41
2023-05-19T16:17:19.802Z,41.87
2023-05-19T16:20:11.604Z,42.00
2023-05-19T16:23:02.104Z,42.07
2023-05-19T16:25:52.696Z,42.23
2023-05-19T16:28:43.794Z,42.61
2023-05-19T16:31:35.283Z,42.40
2023-05-19T16:34:27.491Z,42.53
2023-05-19T16:37:22.113Z,42.88
2023-05-19T16:40:13.205Z,43.08
2023-05-19T16:43:03.772Z,43.19
2023-05-19T16:45:54.908Z,43.55
2023-05-19T16:48:45.519Z,43.58
2023-05-19T16:51:36.759Z,43.71
2023-05-19T16:54:27.295Z,44.09
2023-05-19T16:57:17.967Z,44.34
2023-05-19T17:00:10.467Z,44.39
2023-05-19T17:03:01.325Z,44.58
2023-05-19T17:05:52.598Z,44.62
2023-05-19T17:08:43.244Z,44.79
2023-05-19T17:11:33.870Z,44.90
2023-05-19T17:14:24.554Z,45.13
2023-05-19T17:17:15.308Z,45.19
2023-05-19T17:20:06.781Z,45.38
2023-05-19T17:22:58.075Z,45.52
2023-05-19T17:25:48.811Z,45.76
2023-05-19T17:28:39.454Z,46.09
2023-05-19T17:31:30.107Z,46.20
2023-05-19T17:34:21.039Z,46.32
2023-05-19T17:37:12.129Z,46.52
2023-05-19T17:40:05.448Z,46.42
2023-05-19T17:42:58.982Z,46.79
2023-05-19T17:45:49.972Z,47.43
2023-05-19T17:48:42.970Z,48.07
2023-05-19T17:51:33.891Z,48.48
2023-05-19T17:54:27.570Z,48.85
2023-05-19T17:57:19.421Z,49.36
2023-05-19T18:00:11.482Z,49.64
2023-05-19T18:03:04.751Z,49.80
2023-05-19T18:05:56.207Z,50.21
2023-05-19T18:08:50.739Z,50.52
2023-05-19T18:11:41.690Z,51.05
2023-05-19T18:14:34.500Z,51.25
2023-05-19T18:17:25.161Z,51.18
2023-05-19T18:20:16.060Z,51.31
2023-05-19T18:23:06.718Z,51.57
2023-05-19T18:25:57.385Z,51.71
2023-05-19T18:28:47.774Z,51.78
2023-05-19T18:31:38.433Z,51.82
2023-05-19T18:34:29.740Z,52.18
2023-05-19T18:37:20.794Z,52.34
2023-05-19T18:40:12.027Z,52.44
2023-05-19T18:43:05.801Z,52.43
2023-05-19T18:45:59.274Z,52.62
2023-05-19T18:48:52.276Z,52.90
2023-05-19T18:51:48.653Z,53.05
2023-05-19T18:54:42.464Z,53.47
2023-05-19T18:57:35.771Z,53.38
2023-05-19T19:00:28.252Z,53.46
2023-05-19T19:03:19.092Z,53.49
2023-05-19T19:06:09.659Z,53.61
2023-05-19T19:09:02.504Z,53.68
2023-05-19T19:11:53.148Z,53.89
2023-05-19T19:14:43.794Z,53.96
2023-05-19T19:17:54.512Z,54.02
2023-05-19T19:20:48.037Z,54.07
2023-05-19T19:23:39.212Z,54.14
2023-05-19T19:26:32.155Z,54.07
2023-05-19T19:29:33.833Z,54.36
2023-05-19T19:32:24.471Z,54.38
2023-05-19T19:35:16.210Z,54.65
2023-05-19T19:38:07.182Z,54.66
2023-05-19T19:40:58.377Z,54.56
2023-05-19T19:43:48.978Z,54.38
2023-05-19T19:46:39.567Z,54.31
2023-05-19T19:49:30.394Z,54.51
2023-05-19T19:52:21.039Z,54.54
2023-05-19T19:55:12.295Z,54.74
2023-05-19T19:58:06.231Z,54.74
2023-05-19T20:01:00.574Z,54.80
2023-05-19T20:03:51.429Z,54.82
2023-05-19T20:06:42.051Z,54.91
2023-05-19T20:09:32.618Z,55.07
2023-05-19T20:12:23.307Z,55.12
2023-05-19T20:15:14.018Z,55.23
2023-05-19T20:18:04.732Z,55.30
2023-05-19T20:20:57.705Z,55.49
2023-05-19T20:23:50.475Z,55.72
2023-05-19T20:26:41.371Z,55.96
2023-05-19T20:29:31.568Z,56.06
2023-05-19T20:32:22.228Z,56.30
2023-05-19T20:35:12.891Z,56.49
2023-05-19T20:38:03.482Z,56.70
2023-05-19T20:40:55.083Z,56.87
2023-05-19T20:43:48.074Z,56.83
2023-05-19T20:46:38.660Z,56.95
2023-05-19T20:49:29.195Z,56.98
2023-05-19T20:52:19.910Z,57.33
2023-05-19T20:55:10.823Z,57.50
2023-05-19T20:58:01.432Z,57.52
2023-05-19T21:00:57.964Z,57.80
2023-05-19T21:03:48.751Z,57.97
2023-05-19T21:06:39.308Z,58.09
2023-05-19T21:09:29.935Z,58.18
2023-05-19T21:12:24.003Z,58.20
2023-05-19T21:15:14.893Z,58.31
2023-05-19T21:18:05.873Z,58.51
2023-05-19T21:21:06.074Z,58.74
2023-05-19T21:23:56.942Z,58.84
2023-05-19T21:26:49.432Z,58.93
2023-05-19T21:29:39.829Z,58.94
2023-05-19T21:32:30.460Z,59.14
2023-05-19T21:35:21.167Z,59.52
2023-05-19T21:38:22.540Z,59.73
2023-05-19T21:41:14.702Z,59.79
2023-05-19T21:44:06.156Z,59.82
2023-05-19T21:46:56.628Z,60.00
2023-05-19T21:49:57.669Z,59.99
2023-05-19T21:52:48.753Z,59.98
2023-05-19T21:55:39.749Z,60.10
2023-05-19T21:58:32.575Z,60.28
2023-05-19T22:01:23.582Z,60.17
2023-05-19T22:04:16.426Z,60.03
2023-05-19T22:07:08.248Z,60.00
2023-05-19T22:10:01.742Z,60.26
2023-05-19T22:12:52.368Z,60.33
2023-05-19T22:15:46.721Z,60.51
2023-05-19T22:18:37.185Z,60.47
2023-05-19T22:21:30.438Z,60.60
2023-05-19T22:24:20.985Z,60.55
2023-05-19T22:27:11.772Z,60.75
2023-05-19T22:30:06.014Z,60.96
2023-05-19T22:33:00.287Z,61.17
2023-05-19T22:36:11.521Z,61.34
2023-05-19T22:39:02.345Z,61.57
2023-05-19T22:41:53.192Z,61.88
2023-05-19T22:45:06.011Z,62.07
2023-05-19T22:47:59.767Z,62.26
2023-05-19T22:50:53.227Z,62.17
2023-05-19T22:53:46.850Z,62.08
2023-05-19T22:56:46.390Z,61.81
2023-05-19T22:59:38.567Z,61.79
2023-05-19T23:02:31.876Z,61.87
2023-05-19T23:05:22.578Z,61.90
2023-05-19T23:08:13.308Z,61.85
2023-05-19T23:11:09.698Z,61.86
2023-05-19T23:14:03.062Z,61.83
2023-05-19T23:16:59.555Z,61.85
2023-05-19T23:19:57.772Z,61.87
2023-05-19T23:22:50.733Z,61.86
2023-05-19T23:25:56.726Z,62.00
2023-05-19T23:29:00.164Z,61.90
2023-05-19T23:31:58.440Z,62.04
2023-05-19T23:35:15.799Z,62.17
2023-05-19T23:38:10.066Z,62.03
2023-05-19T23:41:26.518Z,62.13
2023-05-19T23:44:31.941Z,62.16
2023-05-19T23:47:26.451Z,62.22
2023-05-19T23:50:29.500Z,62.43
2023-05-19T23:53:29.393Z,62.27
2023-05-19T23:56:31.207Z,62.06
2023-05-19T23:59:42.597Z,62.15
